sensor_id;sensor_type;location;lat;lon;timestamp;pressure;altitude;pressure_sealevel;temperature;humidity
42887;BME280;29032;56.028;92.904;2023-01-25T00:01:06;99897.72;;;-9.54;41.97
42887;BME280;29032;56.028;92.904;2023-01-25T00:06:08;99912.63;;;-9.70;42.23
42887;BME280;29032;56.028;92.904;2023-01-25T00:11:10;99895.13;;;-9.62;42.58
42887;BME280;29032;56.028;92.904;2023-01-25T00:16:14;99900.31;;;-9.44;42.50
42887;BME280;29032;56.028;92.904;2023-01-25T00:21:18;99903.84;;;-9.20;42.06
42887;BME280;29032;56.028;92.904;2023-01-25T00:26:21;99915.44;;;-8.89;41.47
42887;BME280;29032;56.028;92.904;2023-01-25T00:31:36;99912.66;;;-8.62;41.38
42887;BME280;29032;56.028;92.904;2023-01-25T00:36:40;99915.25;;;-8.55;41.28
42887;BME280;29032;56.028;92.904;2023-01-25T00:41:43;99928.53;;;-8.37;40.60
42887;BME280;29032;56.028;92.904;2023-01-25T00:46:47;99927.53;;;-8.46;40.97
42887;BME280;29032;56.028;92.904;2023-01-25T00:51:49;99930.38;;;-8.30;40.83
42887;BME280;29032;56.028;92.904;2023-01-25T00:56:52;99934.50;;;-8.22;40.75
42887;BME280;29032;56.028;92.904;2023-01-25T01:01:56;99941.66;;;-8.12;40.89
42887;BME280;29032;56.028;92.904;2023-01-25T01:06:58;99945.56;;;-8.13;40.39
42887;BME280;29032;56.028;92.904;2023-01-25T01:12:00;99937.06;;;-8.15;40.34
42887;BME280;29032;56.028;92.904;2023-01-25T01:17:04;99932.84;;;-8.16;40.54
42887;BME280;29032;56.028;92.904;2023-01-25T01:22:06;99936.22;;;-8.12;40.48
42887;BME280;29032;56.028;92.904;2023-01-25T01:27:08;99941.44;;;-8.21;40.07
42887;BME280;29032;56.028;92.904;2023-01-25T01:32:11;99954.31;;;-8.49;41.21
42887;BME280;29032;56.028;92.904;2023-01-25T01:37:14;99956.44;;;-8.60;41.28
42887;BME280;29032;56.028;92.904;2023-01-25T01:42:16;99961.84;;;-8.60;40.80
42887;BME280;29032;56.028;92.904;2023-01-25T01:47:24;99966.41;;;-8.53;40.65
42887;BME280;29032;56.028;92.904;2023-01-25T01:52:33;99973.28;;;-8.49;40.60
42887;BME280;29032;56.028;92.904;2023-01-25T01:57:41;99983.34;;;-8.45;40.54
42887;BME280;29032;56.028;92.904;2023-01-25T02:02:48;99983.72;;;-8.47;40.96
42887;BME280;29032;56.028;92.904;2023-01-25T02:07:52;99978.03;;;-8.53;40.57
42887;BME280;29032;56.028;92.904;2023-01-25T02:12:57;99983.91;;;-8.58;40.78
42887;BME280;29032;56.028;92.904;2023-01-25T02:18:01;99981.81;;;-8.46;41.13
42887;BME280;29032;56.028;92.904;2023-01-25T02:23:10;99978.03;;;-8.29;40.86
42887;BME280;29032;56.028;92.904;2023-01-25T02:28:22;99968.41;;;-8.10;40.71
42887;BME280;29032;56.028;92.904;2023-01-25T02:33:26;99940.84;;;-8.09;40.22
42887;BME280;29032;56.028;92.904;2023-01-25T02:38:33;99948.16;;;-8.06;40.61
42887;BME280;29032;56.028;92.904;2023-01-25T02:43:38;99955.19;;;-8.08;40.34
42887;BME280;29032;56.028;92.904;2023-01-25T02:48:40;99957.38;;;-8.23;41.03
42887;BME280;29032;56.028;92.904;2023-01-25T02:53:42;99950.44;;;-8.24;40.42
42887;BME280;29032;56.028;92.904;2023-01-25T02:58:46;99962.81;;;-8.23;40.39
42887;BME280;29032;56.028;92.904;2023-01-25T03:03:48;99973.72;;;-8.27;40.19
42887;BME280;29032;56.028;92.904;2023-01-25T03:08:52;99973.50;;;-8.36;40.98
42887;BME280;29032;56.028;92.904;2023-01-25T03:13:57;99972.94;;;-8.27;40.36
42887;BME280;29032;56.028;92.904;2023-01-25T03:18:59;99978.25;;;-8.20;40.25
42887;BME280;29032;56.028;92.904;2023-01-25T03:24:02;99983.69;;;-8.20;39.88
42887;BME280;29032;56.028;92.904;2023-01-25T03:29:13;99973.56;;;-8.16;40.06
42887;BME280;29032;56.028;92.904;2023-01-25T03:34:18;99981.63;;;-8.12;39.84
42887;BME280;29032;56.028;92.904;2023-01-25T03:39:20;99973.22;;;-8.18;39.54
42887;BME280;29032;56.028;92.904;2023-01-25T03:44:24;99979.25;;;-8.34;40.20
42887;BME280;29032;56.028;92.904;2023-01-25T03:49:26;99990.94;;;-8.37;40.08
42887;BME280;29032;56.028;92.904;2023-01-25T03:54:29;99982.28;;;-8.52;40.57
42887;BME280;29032;56.028;92.904;2023-01-25T03:59:33;99993.94;;;-8.55;40.57
42887;BME280;29032;56.028;92.904;2023-01-25T04:04:35;100006.56;;;-8.44;40.57
42887;BME280;29032;56.028;92.904;2023-01-25T04:09:38;99998.56;;;-8.28;40.55
42887;BME280;29032;56.028;92.904;2023-01-25T04:14:43;100010.66;;;-8.09;40.48
42887;BME280;29032;56.028;92.904;2023-01-25T04:19:47;100016.38;;;-7.80;40.19
42887;BME280;29032;56.028;92.904;2023-01-25T04:24:52;100016.34;;;-7.57;39.61
42887;BME280;29032;56.028;92.904;2023-01-25T04:29:57;99947.00;;;-7.85;39.24
42887;BME280;29032;56.028;92.904;2023-01-25T04:35:01;100019.88;;;-7.20;39.36
42887;BME280;29032;56.028;92.904;2023-01-25T04:40:06;100016.97;;;-7.09;39.01
42887;BME280;29032;56.028;92.904;2023-01-25T04:45:16;100014.88;;;-7.02;39.07
42887;BME280;29032;56.028;92.904;2023-01-25T04:50:18;100018.63;;;-7.16;38.80
42887;BME280;29032;56.028;92.904;2023-01-25T04:55:21;100020.31;;;-7.42;39.09
42887;BME280;29032;56.028;92.904;2023-01-25T05:00:27;100012.94;;;-7.61;39.33
42887;BME280;29032;56.028;92.904;2023-01-25T05:05:30;100024.06;;;-7.55;39.69
42887;BME280;29032;56.028;92.904;2023-01-25T05:10:34;100030.28;;;-7.55;39.32
42887;BME280;29032;56.028;92.904;2023-01-25T05:16:02;100027.56;;;-7.55;39.68
42887;BME280;29032;56.028;92.904;2023-01-25T05:21:04;100030.03;;;-7.64;39.62
42887;BME280;29032;56.028;92.904;2023-01-25T05:26:07;100024.28;;;-7.66;40.26
42887;BME280;29032;56.028;92.904;2023-01-25T05:31:12;100023.78;;;-7.61;40.07
42887;BME280;29032;56.028;92.904;2023-01-25T05:36:14;100037.13;;;-7.70;40.19
42887;BME280;29032;56.028;92.904;2023-01-25T05:41:17;100030.50;;;-7.89;40.44
42887;BME280;29032;56.028;92.904;2023-01-25T05:46:21;100034.31;;;-7.86;40.88
42887;BME280;29032;56.028;92.904;2023-01-25T05:51:24;100040.41;;;-7.79;40.41
42887;BME280;29032;56.028;92.904;2023-01-25T05:56:26;100033.91;;;-7.85;40.13
42887;BME280;29032;56.028;92.904;2023-01-25T06:01:31;100043.16;;;-7.59;40.83
42887;BME280;29032;56.028;92.904;2023-01-25T06:06:34;100035.78;;;-7.39;39.92
42887;BME280;29032;56.028;92.904;2023-01-25T06:11:36;100051.06;;;-7.45;40.01
42887;BME280;29032;56.028;92.904;2023-01-25T06:16:40;100051.41;;;-7.43;39.72
42887;BME280;29032;56.028;92.904;2023-01-25T06:22:21;100049.88;;;-7.44;40.07
42887;BME280;29032;56.028;92.904;2023-01-25T06:27:23;100066.38;;;-7.34;39.93
42887;BME280;29032;56.028;92.904;2023-01-25T06:32:32;100058.75;;;-7.20;40.06
42887;BME280;29032;56.028;92.904;2023-01-25T06:37:34;100063.47;;;-7.04;39.75
42887;BME280;29032;56.028;92.904;2023-01-25T06:42:36;100066.19;;;-7.04;39.27
42887;BME280;29032;56.028;92.904;2023-01-25T06:47:41;100079.66;;;-6.97;39.20
42887;BME280;29032;56.028;92.904;2023-01-25T06:52:50;100091.84;;;-6.85;39.64
42887;BME280;29032;56.028;92.904;2023-01-25T06:57:52;100108.84;;;-7.01;38.21
42887;BME280;29032;56.028;92.904;2023-01-25T07:02:56;100124.91;;;-7.73;38.50
42887;BME280;29032;56.028;92.904;2023-01-25T07:07:58;100154.69;;;-8.20;37.84
42887;BME280;29032;56.028;92.904;2023-01-25T07:13:00;100157.69;;;-9.06;38.58
42887;BME280;29032;56.028;92.904;2023-01-25T07:18:04;100163.53;;;-9.52;40.18
42887;BME280;29032;56.028;92.904;2023-01-25T07:23:06;100166.91;;;-9.90;39.83
42887;BME280;29032;56.028;92.904;2023-01-25T07:28:08;100167.50;;;-10.20;40.46
42887;BME280;29032;56.028;92.904;2023-01-25T07:33:12;100174.34;;;-10.78;41.96
42887;BME280;29032;56.028;92.904;2023-01-25T07:38:14;100191.31;;;-10.81;41.72
42887;BME280;29032;56.028;92.904;2023-01-25T07:43:18;100197.22;;;-11.07;42.12
42887;BME280;29032;56.028;92.904;2023-01-25T07:48:22;100199.94;;;-11.54;43.25
42887;BME280;29032;56.028;92.904;2023-01-25T07:53:24;100220.38;;;-11.70;43.72
42887;BME280;29032;56.028;92.904;2023-01-25T07:58:26;100234.25;;;-11.61;43.42
42887;BME280;29032;56.028;92.904;2023-01-25T08:03:30;100238.50;;;-11.67;43.60
42887;BME280;29032;56.028;92.904;2023-01-25T08:08:32;100247.75;;;-11.75;43.65
42887;BME280;29032;56.028;92.904;2023-01-25T08:13:35;100253.53;;;-11.77;44.85
42887;BME280;29032;56.028;92.904;2023-01-25T08:18:38;100290.88;;;-11.90;45.23
42887;BME280;29032;56.028;92.904;2023-01-25T08:23:41;100308.19;;;-12.12;45.66
42887;BME280;29032;56.028;92.904;2023-01-25T08:28:43;100313.94;;;-12.14;46.39
42887;BME280;29032;56.028;92.904;2023-01-25T08:33:47;100317.03;;;-12.08;45.63
42887;BME280;29032;56.028;92.904;2023-01-25T08:38:54;100313.13;;;-12.21;45.98
42887;BME280;29032;56.028;92.904;2023-01-25T08:43:56;100335.22;;;-11.98;45.03
42887;BME280;29032;56.028;92.904;2023-01-25T08:49:00;100346.38;;;-11.99;45.73
42887;BME280;29032;56.028;92.904;2023-01-25T08:54:06;100348.00;;;-11.77;45.02
42887;BME280;29032;56.028;92.904;2023-01-25T08:59:10;100369.56;;;-11.77;45.19
42887;BME280;29032;56.028;92.904;2023-01-25T09:04:14;100380.41;;;-11.66;44.29
42887;BME280;29032;56.028;92.904;2023-01-25T09:09:16;100374.91;;;-11.88;45.08
42887;BME280;29032;56.028;92.904;2023-01-25T09:14:18;100386.41;;;-12.12;45.21
42887;BME280;29032;56.028;92.904;2023-01-25T09:19:22;100379.66;;;-12.47;45.73
42887;BME280;29032;56.028;92.904;2023-01-25T09:24:24;100399.72;;;-12.41;45.62
42887;BME280;29032;56.028;92.904;2023-01-25T09:29:26;100410.47;;;-12.48;46.59
42887;BME280;29032;56.028;92.904;2023-01-25T09:34:30;100428.22;;;-12.36;46.20
42887;BME280;29032;56.028;92.904;2023-01-25T09:39:32;100421.81;;;-12.17;45.68
42887;BME280;29032;56.028;92.904;2023-01-25T09:44:45;100422.75;;;-11.92;45.72
42887;BME280;29032;56.028;92.904;2023-01-25T09:50:04;100430.47;;;-11.80;45.82
42887;BME280;29032;56.028;92.904;2023-01-25T09:55:15;100426.28;;;-11.70;46.14
42887;BME280;29032;56.028;92.904;2023-01-25T10:00:22;100431.41;;;-11.36;44.75
42887;BME280;29032;56.028;92.904;2023-01-25T10:05:30;100449.59;;;-11.22;44.87
42887;BME280;29032;56.028;92.904;2023-01-25T10:10:36;100455.44;;;-10.95;44.98
42887;BME280;29032;56.028;92.904;2023-01-25T10:15:41;100469.78;;;-10.59;44.27
42887;BME280;29032;56.028;92.904;2023-01-25T10:20:50;100478.69;;;-10.27;43.59
42887;BME280;29032;56.028;92.904;2023-01-25T10:25:56;100482.94;;;-10.15;43.88
42887;BME280;29032;56.028;92.904;2023-01-25T10:31:02;100484.84;;;-10.01;42.85
42887;BME280;29032;56.028;92.904;2023-01-25T10:36:12;100481.75;;;-9.93;42.26
42887;BME280;29032;56.028;92.904;2023-01-25T10:41:19;100486.38;;;-9.93;41.54
42887;BME280;29032;56.028;92.904;2023-01-25T10:46:24;100489.09;;;-9.97;40.86
42887;BME280;29032;56.028;92.904;2023-01-25T10:51:32;100515.00;;;-10.10;40.69
42887;BME280;29032;56.028;92.904;2023-01-25T10:56:38;100513.44;;;-10.47;40.06
42887;BME280;29032;56.028;92.904;2023-01-25T11:01:40;100519.63;;;-10.60;39.71
42887;BME280;29032;56.028;92.904;2023-01-25T11:06:48;100527.25;;;-10.98;38.18
42887;BME280;29032;56.028;92.904;2023-01-25T11:11:54;100524.03;;;-11.29;39.09
42887;BME280;29032;56.028;92.904;2023-01-25T11:16:58;100534.00;;;-11.47;38.68
42887;BME280;29032;56.028;92.904;2023-01-25T11:22:04;100536.66;;;-11.54;39.56
42887;BME280;29032;56.028;92.904;2023-01-25T11:27:17;100544.75;;;-11.50;39.73
42887;BME280;29032;56.028;92.904;2023-01-25T11:32:20;100549.09;;;-11.39;39.22
42887;BME280;29032;56.028;92.904;2023-01-25T11:37:39;100553.75;;;-11.29;39.48
42887;BME280;29032;56.028;92.904;2023-01-25T11:42:55;100557.53;;;-11.44;38.81
42887;BME280;29032;56.028;92.904;2023-01-25T11:48:14;100558.69;;;-11.45;42.37
42887;BME280;29032;56.028;92.904;2023-01-25T11:53:52;100557.78;;;-11.67;42.27
42887;BME280;29032;56.028;92.904;2023-01-25T11:59:09;100561.50;;;-11.89;40.49
42887;BME280;29032;56.028;92.904;2023-01-25T12:04:38;100568.59;;;-12.22;40.36
42887;BME280;29032;56.028;92.904;2023-01-25T12:09:55;100573.00;;;-12.03;39.95
42887;BME280;29032;56.028;92.904;2023-01-25T12:15:14;100571.59;;;-11.79;39.09
42887;BME280;29032;56.028;92.904;2023-01-25T12:20:30;100591.06;;;-11.52;38.71
42887;BME280;29032;56.028;92.904;2023-01-25T12:25:46;100583.38;;;-11.43;38.17
42887;BME280;29032;56.028;92.904;2023-01-25T12:30:55;100585.69;;;-11.45;37.41
42887;BME280;29032;56.028;92.904;2023-01-25T12:36:03;100590.56;;;-11.68;37.16
42887;BME280;29032;56.028;92.904;2023-01-25T12:41:17;100595.97;;;-12.20;37.84
42887;BME280;29032;56.028;92.904;2023-01-25T12:46:26;100602.34;;;-12.35;38.66
42887;BME280;29032;56.028;92.904;2023-01-25T12:51:37;100601.38;;;-12.57;38.74
42887;BME280;29032;56.028;92.904;2023-01-25T12:56:47;100614.34;;;-13.00;39.26
42887;BME280;29032;56.028;92.904;2023-01-25T13:01:57;100623.25;;;-12.96;39.13
42887;BME280;29032;56.028;92.904;2023-01-25T13:07:08;100624.13;;;-12.88;38.72
42887;BME280;29032;56.028;92.904;2023-01-25T13:12:15;100627.34;;;-12.75;39.43
42887;BME280;29032;56.028;92.904;2023-01-25T13:17:23;100634.53;;;-12.53;39.11
42887;BME280;29032;56.028;92.904;2023-01-25T13:22:53;100634.38;;;-12.30;38.89
42887;BME280;29032;56.028;92.904;2023-01-25T13:33:44;100648.78;;;-12.15;38.50
42887;BME280;29032;56.028;92.904;2023-01-25T13:38:46;100651.88;;;-12.17;37.43
42887;BME280;29032;56.028;92.904;2023-01-25T13:44:24;100658.34;;;-12.21;38.46
42887;BME280;29032;56.028;92.904;2023-01-25T13:49:33;100654.22;;;-12.49;38.17
42887;BME280;29032;56.028;92.904;2023-01-25T13:54:42;100665.97;;;-12.64;37.89
42887;BME280;29032;56.028;92.904;2023-01-25T13:59:44;100656.81;;;-12.89;37.51
42887;BME280;29032;56.028;92.904;2023-01-25T14:04:49;100672.16;;;-13.20;36.90
42887;BME280;29032;56.028;92.904;2023-01-25T14:09:52;100682.41;;;-13.56;37.46
42887;BME280;29032;56.028;92.904;2023-01-25T14:14:54;100690.97;;;-13.73;37.87
42887;BME280;29032;56.028;92.904;2023-01-25T14:19:58;100685.34;;;-13.87;37.63
42887;BME280;29032;56.028;92.904;2023-01-25T14:25:05;100688.97;;;-13.99;37.86
42887;BME280;29032;56.028;92.904;2023-01-25T14:30:15;100714.13;;;-14.11;37.82
42887;BME280;29032;56.028;92.904;2023-01-25T14:35:39;100698.78;;;-14.10;38.46
42887;BME280;29032;56.028;92.904;2023-01-25T14:40:42;100693.03;;;-14.09;38.03
42887;BME280;29032;56.028;92.904;2023-01-25T14:45:44;100691.31;;;-13.97;38.12
42887;BME280;29032;56.028;92.904;2023-01-25T14:50:48;100718.06;;;-14.05;36.33
42887;BME280;29032;56.028;92.904;2023-01-25T14:55:50;100714.44;;;-14.54;36.82
42887;BME280;29032;56.028;92.904;2023-01-25T15:00:53;100728.44;;;-14.84;36.75
42887;BME280;29032;56.028;92.904;2023-01-25T15:06:01;100725.81;;;-15.16;37.97
42887;BME280;29032;56.028;92.904;2023-01-25T15:11:20;100732.56;;;-15.22;36.83
42887;BME280;29032;56.028;92.904;2023-01-25T15:16:32;100731.19;;;-15.16;37.00
42887;BME280;29032;56.028;92.904;2023-01-25T15:21:36;100743.47;;;-15.15;36.53
42887;BME280;29032;56.028;92.904;2023-01-25T15:26:38;100738.28;;;-15.39;37.21
42887;BME280;29032;56.028;92.904;2023-01-25T15:31:40;100743.66;;;-15.39;36.39
42887;BME280;29032;56.028;92.904;2023-01-25T15:36:45;100749.00;;;-15.86;36.39
42887;BME280;29032;56.028;92.904;2023-01-25T15:41:47;100753.94;;;-16.16;37.89
42887;BME280;29032;56.028;92.904;2023-01-25T15:46:50;100755.25;;;-16.10;36.88
42887;BME280;29032;56.028;92.904;2023-01-25T15:51:55;100759.00;;;-15.99;36.77
42887;BME280;29032;56.028;92.904;2023-01-25T15:56:58;100750.50;;;-16.01;37.18
42887;BME280;29032;56.028;92.904;2023-01-25T16:02:00;100760.13;;;-16.00;36.36
42887;BME280;29032;56.028;92.904;2023-01-25T16:07:04;100762.44;;;-16.14;37.04
42887;BME280;29032;56.028;92.904;2023-01-25T16:12:07;100761.19;;;-16.33;37.05
42887;BME280;29032;56.028;92.904;2023-01-25T16:17:15;100758.94;;;-16.31;37.49
42887;BME280;29032;56.028;92.904;2023-01-25T16:22:19;100758.94;;;-16.31;37.41
42887;BME280;29032;56.028;92.904;2023-01-25T16:27:21;100757.59;;;-16.37;37.30
42887;BME280;29032;56.028;92.904;2023-01-25T16:32:24;100762.19;;;-16.37;37.50
42887;BME280;29032;56.028;92.904;2023-01-25T16:37:27;100754.81;;;-16.28;37.47
42887;BME280;29032;56.028;92.904;2023-01-25T16:42:29;100750.59;;;-16.13;36.87
42887;BME280;29032;56.028;92.904;2023-01-25T16:47:32;100748.09;;;-16.06;37.02
42887;BME280;29032;56.028;92.904;2023-01-25T16:52:35;100736.00;;;-16.00;36.96
42887;BME280;29032;56.028;92.904;2023-01-25T16:57:37;100745.53;;;-15.87;36.64
42887;BME280;29032;56.028;92.904;2023-01-25T17:02:41;100751.06;;;-15.80;37.06
42887;BME280;29032;56.028;92.904;2023-01-25T17:07:48;100747.78;;;-15.89;36.77
42887;BME280;29032;56.028;92.904;2023-01-25T17:12:50;100741.22;;;-16.19;37.17
42887;BME280;29032;56.028;92.904;2023-01-25T17:17:53;100740.34;;;-16.52;36.76
42887;BME280;29032;56.028;92.904;2023-01-25T17:22:57;100737.84;;;-16.72;37.39
42887;BME280;29032;56.028;92.904;2023-01-25T17:27:59;100738.31;;;-16.83;36.72
42887;BME280;29032;56.028;92.904;2023-01-25T17:33:01;100740.56;;;-16.85;37.46
42887;BME280;29032;56.028;92.904;2023-01-25T17:38:05;100748.59;;;-16.97;37.30
42887;BME280;29032;56.028;92.904;2023-01-25T17:43:07;100741.13;;;-16.91;37.58
42887;BME280;29032;56.028;92.904;2023-01-25T17:48:09;100737.88;;;-16.85;37.54
42887;BME280;29032;56.028;92.904;2023-01-25T17:53:12;100751.22;;;-16.72;37.85
42887;BME280;29032;56.028;92.904;2023-01-25T17:58:15;100752.69;;;-16.75;37.87
42887;BME280;29032;56.028;92.904;2023-01-25T18:03:17;100750.38;;;-16.89;38.06
42887;BME280;29032;56.028;92.904;2023-01-25T18:08:20;100740.13;;;-16.99;37.37
42887;BME280;29032;56.028;92.904;2023-01-25T18:13:22;100751.94;;;-16.88;37.49
42887;BME280;29032;56.028;92.904;2023-01-25T18:18:24;100751.28;;;-16.85;37.59
42887;BME280;29032;56.028;92.904;2023-01-25T18:23:28;100753.59;;;-16.83;38.01
42887;BME280;29032;56.028;92.904;2023-01-25T18:28:30;100737.59;;;-16.55;37.53
42887;BME280;29032;56.028;92.904;2023-01-25T18:33:33;100743.31;;;-16.29;37.84
42887;BME280;29032;56.028;92.904;2023-01-25T18:38:36;100739.75;;;-16.33;38.65
42887;BME280;29032;56.028;92.904;2023-01-25T18:43:39;100736.50;;;-16.10;38.32
42887;BME280;29032;56.028;92.904;2023-01-25T18:48:41;100735.06;;;-15.92;38.58
42887;BME280;29032;56.028;92.904;2023-01-25T18:53:44;100739.66;;;-15.77;39.46
42887;BME280;29032;56.028;92.904;2023-01-25T18:58:47;100742.19;;;-15.36;39.77
42887;BME280;29032;56.028;92.904;2023-01-25T19:03:50;100738.94;;;-15.10;39.22
42887;BME280;29032;56.028;92.904;2023-01-25T19:08:54;100738.66;;;-14.90;39.75
42887;BME280;29032;56.028;92.904;2023-01-25T19:13:56;100739.22;;;-14.65;39.58
42887;BME280;29032;56.028;92.904;2023-01-25T19:18:58;100745.38;;;-14.45;39.49
42887;BME280;29032;56.028;92.904;2023-01-25T19:24:02;100737.47;;;-14.34;39.40
42887;BME280;29032;56.028;92.904;2023-01-25T19:29:04;100725.50;;;-14.40;39.07
42887;BME280;29032;56.028;92.904;2023-01-25T19:34:07;100730.94;;;-14.37;39.55
42887;BME280;29032;56.028;92.904;2023-01-25T19:39:11;100735.03;;;-14.23;39.03
42887;BME280;29032;56.028;92.904;2023-01-25T19:44:13;100715.69;;;-14.10;38.94
42887;BME280;29032;56.028;92.904;2023-01-25T19:49:15;100715.22;;;-13.92;39.14
42887;BME280;29032;56.028;92.904;2023-01-25T19:54:19;100710.09;;;-14.20;38.94
42887;BME280;29032;56.028;92.904;2023-01-25T19:59:22;100709.53;;;-14.52;39.33
42887;BME280;29032;56.028;92.904;2023-01-25T20:04:24;100718.69;;;-14.53;39.64
42887;BME280;29032;56.028;92.904;2023-01-25T20:09:27;100705.69;;;-14.71;40.10
42887;BME280;29032;56.028;92.904;2023-01-25T20:14:30;100713.75;;;-14.71;40.36
42887;BME280;29032;56.028;92.904;2023-01-25T20:19:32;100700.31;;;-14.51;39.99
42887;BME280;29032;56.028;92.904;2023-01-25T20:24:36;100695.16;;;-14.18;39.31
42887;BME280;29032;56.028;92.904;2023-01-25T20:29:38;100695.09;;;-14.02;39.16
42887;BME280;29032;56.028;92.904;2023-01-25T20:34:40;100695.03;;;-13.83;39.36
42887;BME280;29032;56.028;92.904;2023-01-25T20:39:58;100698.19;;;-13.77;39.23
42887;BME280;29032;56.028;92.904;2023-01-25T20:45:01;100691.50;;;-13.87;39.60
42887;BME280;29032;56.028;92.904;2023-01-25T20:50:03;100695.13;;;-13.76;39.18
42887;BME280;29032;56.028;92.904;2023-01-25T20:55:08;100697.28;;;-13.62;39.41
42887;BME280;29032;56.028;92.904;2023-01-25T21:00:11;100680.44;;;-13.59;38.77
42887;BME280;29032;56.028;92.904;2023-01-25T21:05:13;100672.91;;;-13.72;38.93
42887;BME280;29032;56.028;92.904;2023-01-25T21:10:17;100656.91;;;-13.88;39.40
42887;BME280;29032;56.028;92.904;2023-01-25T21:15:19;100666.44;;;-13.91;39.33
42887;BME280;29032;56.028;92.904;2023-01-25T21:20:21;100645.28;;;-13.92;39.36
42887;BME280;29032;56.028;92.904;2023-01-25T21:25:25;100651.03;;;-14.17;39.49
42887;BME280;29032;56.028;92.904;2023-01-25T21:30:27;100634.56;;;-14.38;38.81
42887;BME280;29032;56.028;92.904;2023-01-25T21:35:31;100621.81;;;-14.61;39.73
42887;BME280;29032;56.028;92.904;2023-01-25T21:40:35;100620.13;;;-14.69;39.44
42887;BME280;29032;56.028;92.904;2023-01-25T21:45:37;100611.09;;;-14.99;39.69
42887;BME280;29032;56.028;92.904;2023-01-25T21:50:39;100598.28;;;-15.25;39.56
42887;BME280;29032;56.028;92.904;2023-01-25T21:55:43;100596.38;;;-15.25;39.43
42887;BME280;29032;56.028;92.904;2023-01-25T22:00:45;100589.56;;;-15.38;39.54
42887;BME280;29032;56.028;92.904;2023-01-25T22:05:52;100582.19;;;-15.60;39.30
42887;BME280;29032;56.028;92.904;2023-01-25T22:11:01;100568.72;;;-15.80;40.37
42887;BME280;29032;56.028;92.904;2023-01-25T22:16:04;100560.19;;;-15.85;39.83
42887;BME280;29032;56.028;92.904;2023-01-25T22:21:12;100547.97;;;-15.83;39.83
42887;BME280;29032;56.028;92.904;2023-01-25T22:26:18;100558.81;;;-15.79;39.97
42887;BME280;29032;56.028;92.904;2023-01-25T22:31:22;100541.91;;;-15.80;40.09
42887;BME280;29032;56.028;92.904;2023-01-25T22:36:27;100541.81;;;-15.68;39.42
42887;BME280;29032;56.028;92.904;2023-01-25T22:41:31;100533.28;;;-15.89;39.95
42887;BME280;29032;56.028;92.904;2023-01-25T22:46:36;100522.25;;;-16.03;39.97
42887;BME280;29032;56.028;92.904;2023-01-25T22:51:38;100510.31;;;-16.06;39.70
42887;BME280;29032;56.028;92.904;2023-01-25T22:56:42;100501.66;;;-15.99;40.73
42887;BME280;29032;56.028;92.904;2023-01-25T23:01:44;100491.88;;;-15.91;39.88
42887;BME280;29032;56.028;92.904;2023-01-25T23:06:46;100498.16;;;-15.84;40.44
42887;BME280;29032;56.028;92.904;2023-01-25T23:11:50;100483.22;;;-15.85;40.38
42887;BME280;29032;56.028;92.904;2023-01-25T23:16:52;100482.59;;;-15.94;40.08
42887;BME280;29032;56.028;92.904;2023-01-25T23:21:54;100467.13;;;-15.85;40.82
42887;BME280;29032;56.028;92.904;2023-01-25T23:26:58;100466.06;;;-15.61;40.01
42887;BME280;29032;56.028;92.904;2023-01-25T23:32:00;100469.00;;;-15.50;41.25
42887;BME280;29032;56.028;92.904;2023-01-25T23:37:02;100459.94;;;-15.42;40.17
42887;BME280;29032;56.028;92.904;2023-01-25T23:42:06;100459.09;;;-15.46;40.36
42887;BME280;29032;56.028;92.904;2023-01-25T23:47:08;100445.59;;;-15.69;40.55
42887;BME280;29032;56.028;92.904;2023-01-25T23:52:10;100437.78;;;-15.78;40.58
42887;BME280;29032;56.028;92.904;2023-01-25T23:57:14;100427.88;;;-15.74;41.04
